createdAt,value
2023-05-12T00:00:36.579Z,88041.00
2023-05-12T00:01:36.591Z,88043.00
2023-05-12T00:02:36.856Z,88045.00
2023-05-12T00:03:36.761Z,88043.00
2023-05-12T00:04:36.612Z,88045.00
2023-05-12T00:05:36.614Z,88045.00
2023-05-12T00:06:36.592Z,88045.00
2023-05-12T00:07:36.597Z,88047.00
2023-05-12T00:08:36.627Z,88047.00
2023-05-12T00:09:36.618Z,88047.00
2023-05-12T00:10:36.658Z,88047.00
2023-05-12T00:11:36.626Z,88049.00
2023-05-12T00:12:36.634Z,88047.00
2023-05-12T00:13:36.701Z,88045.00
2023-05-12T00:14:36.645Z,88043.00
2023-05-12T00:15:36.657Z,88043.00
2023-05-12T00:16:36.689Z,88043.00
2023-05-12T00:17:36.667Z,88039.00
2023-05-12T00:18:36.655Z,88041.00
2023-05-12T00:19:36.645Z,88039.00
2023-05-12T00:20:36.655Z,88037.00
2023-05-12T00:21:36.716Z,88037.00
2023-05-12T00:22:36.715Z,88039.00
2023-05-12T00:23:36.648Z,88039.00
2023-05-12T00:24:36.653Z,88039.00
2023-05-12T00:25:36.703Z,88039.00
2023-05-12T00:26:36.658Z,88037.00
2023-05-12T00:27:36.672Z,88039.00
2023-05-12T00:28:36.680Z,88037.00
2023-05-12T00:29:36.672Z,88035.00
2023-05-12T00:30:36.699Z,88033.00
2023-05-12T00:31:36.742Z,88033.00
2023-05-12T00:32:36.709Z,88031.00
2023-05-12T00:33:36.688Z,88031.00
2023-05-12T00:34:36.746Z,88031.00
2023-05-12T00:35:36.706Z,88027.00
2023-05-12T00:36:36.682Z,88027.00
2023-05-12T00:37:36.744Z,88027.00
2023-05-12T00:38:36.684Z,88027.00
2023-05-12T00:39:36.720Z,88027.00
2023-05-12T00:40:36.740Z,88027.00
2023-05-12T00:41:36.734Z,88027.00
2023-05-12T00:42:36.703Z,88029.00
2023-05-12T00:43:36.697Z,88029.00
2023-05-12T00:44:36.707Z,88029.00
2023-05-12T00:45:36.752Z,88029.00
2023-05-12T00:46:36.712Z,88029.00
2023-05-12T00:47:36.723Z,88029.00
2023-05-12T00:48:36.708Z,88029.00
2023-05-12T00:49:36.758Z,88029.00
2023-05-12T00:50:36.861Z,88029.00
2023-05-12T00:51:36.837Z,88029.00
2023-05-12T00:52:36.887Z,88029.00
2023-05-12T00:53:48.164Z,88031.00
2023-05-12T00:54:37.932Z,88027.00
2023-05-12T00:55:36.946Z,88027.00
2023-05-12T00:56:36.941Z,88029.00
2023-05-12T00:57:36.957Z,88027.00
2023-05-12T00:58:36.935Z,88027.00
2023-05-12T00:59:36.934Z,88027.00
2023-05-12T01:00:36.981Z,88027.00
2023-05-12T01:01:36.997Z,88027.00
2023-05-12T01:02:37.120Z,88025.00
2023-05-12T01:03:36.953Z,88027.00
2023-05-12T01:04:36.940Z,88027.00
2023-05-12T01:05:36.987Z,88025.00
2023-05-12T01:06:36.965Z,88027.00
2023-05-12T01:07:36.976Z,88025.00
2023-05-12T01:08:36.953Z,88029.00
2023-05-12T01:09:36.958Z,88027.00
2023-05-12T01:10:36.968Z,88027.00
2023-05-12T01:11:36.942Z,88027.00
2023-05-12T01:12:37.003Z,88027.00
2023-05-12T01:13:37.034Z,88027.00
2023-05-12T01:14:37.075Z,88025.00
2023-05-12T01:15:37.107Z,88027.00
2023-05-12T01:16:37.158Z,88027.00
2023-05-12T01:17:37.263Z,88029.00
2023-05-12T01:18:37.269Z,88029.00
2023-05-12T01:19:37.271Z,88031.00
2023-05-12T01:20:37.308Z,88029.00
2023-05-12T01:21:37.365Z,88029.00
2023-05-12T01:22:37.478Z,88027.00
2023-05-12T01:23:37.522Z,88029.00
2023-05-12T01:24:37.508Z,88027.00
2023-05-12T01:25:37.598Z,88027.00
2023-05-12T01:26:37.576Z,88027.00
2023-05-12T01:27:37.621Z,88027.00
2023-05-12T01:28:37.682Z,88027.00
2023-05-12T01:29:37.722Z,88027.00
2023-05-12T01:30:37.753Z,88027.00
2023-05-12T01:31:37.836Z,88025.00
2023-05-12T01:32:37.884Z,88023.00
2023-05-12T01:33:37.914Z,88023.00
2023-05-12T01:34:37.961Z,88023.00
2023-05-12T01:35:37.993Z,88023.00
2023-05-12T01:36:38.039Z,88023.00
2023-05-12T01:37:38.081Z,88021.00
2023-05-12T01:38:38.131Z,88021.00
2023-05-12T01:39:38.202Z,88017.00
2023-05-12T01:40:38.239Z,88019.00
2023-05-12T01:41:38.297Z,88019.00
2023-05-12T01:42:38.338Z,88023.00
2023-05-12T01:43:38.391Z,88021.00
2023-05-12T01:44:38.464Z,88023.00
2023-05-12T01:45:38.485Z,88023.00
2023-05-12T01:46:38.566Z,88023.00
2023-05-12T01:47:38.636Z,88027.00
2023-05-12T01:48:38.637Z,88029.00
2023-05-12T01:49:38.662Z,88027.00
2023-05-12T01:50:38.698Z,88025.00
2023-05-12T01:51:38.754Z,88025.00
2023-05-12T01:52:38.804Z,88023.00
2023-05-12T01:53:38.838Z,88023.00
2023-05-12T01:54:38.866Z,88021.00
2023-05-12T01:55:38.912Z,88021.00
2023-05-12T01:56:38.960Z,88021.00
2023-05-12T01:57:38.985Z,88021.00
2023-05-12T01:58:39.084Z,88023.00
2023-05-12T01:59:39.019Z,88023.00
2023-05-12T02:00:39.022Z,88023.00
2023-05-12T02:01:39.072Z,88023.00
2023-05-12T02:02:40.890Z,88025.00
2023-05-12T02:03:39.271Z,88029.00
2023-05-12T02:04:39.023Z,88029.00
2023-05-12T02:05:39.029Z,88029.00
2023-05-12T02:06:39.047Z,88029.00
2023-05-12T02:07:39.031Z,88025.00
2023-05-12T02:08:39.027Z,88027.00
2023-05-12T02:09:39.112Z,88027.00
2023-05-12T02:10:39.057Z,88027.00
2023-05-12T02:11:39.039Z,88027.00
2023-05-12T02:12:39.068Z,88025.00
2023-05-12T02:13:39.040Z,88027.00
2023-05-12T02:14:39.037Z,88025.00
2023-05-12T02:15:39.055Z,88021.00
2023-05-12T02:16:39.098Z,88021.00
2023-05-12T02:17:39.113Z,88023.00
2023-05-12T02:18:39.081Z,88021.00
2023-05-12T02:19:39.072Z,88019.00
2023-05-12T02:20:39.128Z,88021.00
2023-05-12T02:21:39.171Z,88021.00
2023-05-12T02:22:39.233Z,88023.00
2023-05-12T02:23:39.271Z,88023.00
2023-05-12T02:24:39.325Z,88021.00
2023-05-12T02:25:39.394Z,88021.00
2023-05-12T02:26:39.437Z,88019.00
2023-05-12T02:27:39.478Z,88019.00
2023-05-12T02:28:39.527Z,88017.00
2023-05-12T02:29:39.593Z,88017.00
2023-05-12T02:30:39.627Z,88017.00
2023-05-12T02:31:39.719Z,88017.00
2023-05-12T02:32:39.748Z,88017.00
2023-05-12T02:33:39.817Z,88017.00
2023-05-12T02:34:39.821Z,88019.00
2023-05-12T02:35:39.882Z,88021.00
2023-05-12T02:36:39.937Z,88019.00
2023-05-12T02:37:39.968Z,88019.00
2023-05-12T02:38:40.025Z,88021.00
2023-05-12T02:39:40.082Z,88019.00
2023-05-12T02:40:40.152Z,88019.00
2023-05-12T02:41:40.192Z,88019.00
2023-05-12T02:42:40.254Z,88021.00
2023-05-12T02:43:40.300Z,88021.00
2023-05-12T02:44:40.365Z,88019.00
2023-05-12T02:45:40.459Z,88021.00
2023-05-12T02:46:40.476Z,88021.00
2023-05-12T02:47:40.602Z,88021.00
2023-05-12T02:48:40.563Z,88019.00
2023-05-12T02:49:40.616Z,88019.00
2023-05-12T02:50:40.672Z,88019.00
2023-05-12T02:51:40.731Z,88019.00
2023-05-12T02:52:40.778Z,88023.00
2023-05-12T02:53:40.828Z,88023.00
2023-05-12T02:54:40.886Z,88023.00
2023-05-12T02:55:40.933Z,88021.00
2023-05-12T02:56:41.006Z,88023.00
2023-05-12T02:57:41.027Z,88017.00
2023-05-12T02:58:41.072Z,88017.00
2023-05-12T02:59:41.125Z,88015.00
2023-05-12T03:00:41.183Z,88015.00
2023-05-12T03:01:41.263Z,88015.00
2023-05-12T03:02:41.361Z,88011.00
2023-05-12T03:03:41.458Z,88011.00
2023-05-12T03:04:41.385Z,88011.00
2023-05-12T03:05:41.507Z,88011.00
2023-05-12T03:06:41.542Z,88009.00
2023-05-12T03:07:41.593Z,88009.00
2023-05-12T03:08:41.661Z,88011.00
2023-05-12T03:09:41.742Z,88015.00
2023-05-12T03:10:41.798Z,88017.00
2023-05-12T03:11:41.866Z,88013.00
2023-05-12T03:12:41.989Z,88011.00
2023-05-12T03:13:41.996Z,88013.00
2023-05-12T03:14:42.064Z,88009.00
2023-05-12T03:15:42.122Z,88011.00
2023-05-12T03:16:42.236Z,88011.00
2023-05-12T03:17:42.357Z,88013.00
2023-05-12T03:18:42.305Z,88015.00
2023-05-12T03:19:42.331Z,88013.00
2023-05-12T03:20:42.344Z,88011.00
2023-05-12T03:21:42.391Z,88013.00
2023-05-12T03:22:42.413Z,88015.00
2023-05-12T03:23:42.431Z,88015.00
2023-05-12T03:24:42.475Z,88011.00
2023-05-12T03:25:42.487Z,88009.00
2023-05-12T03:26:42.520Z,88009.00
2023-05-12T03:27:42.545Z,88009.00
2023-05-12T03:28:42.581Z,88000.00
2023-05-12T03:29:42.621Z,88002.00
2023-05-12T03:30:42.649Z,88002.00
2023-05-12T03:31:42.736Z,88002.00
2023-05-12T03:32:42.809Z,88009.00
2023-05-12T03:33:42.788Z,88000.00
2023-05-12T03:34:42.815Z,88009.00
2023-05-12T03:35:42.849Z,88002.00
2023-05-12T03:36:42.894Z,88002.00
2023-05-12T03:37:42.940Z,88002.00
2023-05-12T03:38:42.980Z,88002.00
2023-05-12T03:39:43.011Z,88000.00
2023-05-12T03:40:43.059Z,87998.00
2023-05-12T03:41:43.112Z,87998.00
2023-05-12T03:42:43.154Z,88000.00
2023-05-12T03:43:43.209Z,87998.00
2023-05-12T03:44:43.258Z,87998.00
2023-05-12T03:45:43.294Z,87998.00
2023-05-12T03:46:43.392Z,88000.00
2023-05-12T03:47:43.487Z,87998.00
2023-05-12T03:48:43.452Z,87998.00
2023-05-12T03:49:43.465Z,88000.00
2023-05-12T03:50:43.558Z,87998.00
2023-05-12T03:51:43.559Z,87995.00
2023-05-12T03:52:43.606Z,87995.00
2023-05-12T03:53:43.644Z,87996.00
2023-05-12T03:54:43.721Z,87996.00
2023-05-12T03:55:43.752Z,87995.00
2023-05-12T03:56:43.813Z,87995.00
2023-05-12T03:57:43.852Z,87993.00
2023-05-12T03:58:43.912Z,87996.00
2023-05-12T03:59:43.970Z,87993.00
2023-05-12T04:01:44.093Z,87996.00
2023-05-12T04:02:44.286Z,87998.00
2023-05-12T04:03:44.307Z,88000.00
2023-05-12T04:04:44.239Z,87998.00
2023-05-12T04:05:44.289Z,87996.00
2023-05-12T04:06:44.346Z,87995.00
2023-05-12T04:07:44.402Z,87998.00
2023-05-12T04:08:44.422Z,87996.00
2023-05-12T04:09:44.440Z,87993.00
2023-05-12T04:10:44.463Z,87995.00
2023-05-12T04:11:44.492Z,87995.00
2023-05-12T04:12:44.513Z,87996.00
2023-05-12T04:13:44.529Z,87995.00
2023-05-12T04:14:44.551Z,87998.00
2023-05-12T04:15:44.586Z,87996.00
2023-05-12T04:16:44.639Z,88000.00
2023-05-12T04:17:44.651Z,88000.00
2023-05-12T04:18:44.652Z,87998.00
2023-05-12T04:19:44.641Z,87998.00
2023-05-12T04:20:44.675Z,87998.00
2023-05-12T04:21:44.704Z,87998.00
2023-05-12T04:22:44.736Z,87996.00
2023-05-12T04:23:44.794Z,87998.00
2023-05-12T04:24:44.858Z,87996.00
2023-05-12T04:25:44.922Z,87998.00
2023-05-12T04:26:45.003Z,88000.00
2023-05-12T04:27:45.061Z,88000.00
2023-05-12T04:28:45.123Z,88000.00
2023-05-12T04:29:45.192Z,88002.00
2023-05-12T04:30:45.258Z,88009.00
2023-05-12T04:31:45.383Z,88011.00
2023-05-12T04:32:45.438Z,88009.00
2023-05-12T04:33:48.115Z,88015.00
2023-05-12T04:34:45.474Z,88011.00
2023-05-12T04:35:45.496Z,88013.00
2023-05-12T04:36:45.567Z,88013.00
2023-05-12T04:37:45.577Z,88015.00
2023-05-12T04:38:45.586Z,88013.00
2023-05-12T04:39:45.661Z,88013.00
2023-05-12T04:40:45.635Z,88017.00
2023-05-12T04:41:45.678Z,88015.00
2023-05-12T04:42:45.690Z,88017.00
2023-05-12T04:44:45.738Z,88019.00
2023-05-12T04:45:45.805Z,88019.00
2023-05-12T04:46:45.819Z,88023.00
2023-05-12T04:47:45.848Z,88025.00
2023-05-12T04:48:45.857Z,88023.00
2023-05-12T04:49:45.890Z,88025.00
2023-05-12T04:50:45.927Z,88023.00
2023-05-12T04:51:45.947Z,88023.00
2023-05-12T04:52:45.979Z,88023.00
2023-05-12T04:53:45.998Z,88025.00
2023-05-12T04:54:46.026Z,88023.00
2023-05-12T04:55:46.085Z,88023.00
2023-05-12T04:56:46.086Z,88021.00
2023-05-12T04:57:46.103Z,88021.00
2023-05-12T04:58:46.142Z,88025.00
2023-05-12T04:59:46.142Z,88025.00
2023-05-12T05:00:46.164Z,88025.00
2023-05-12T05:01:46.367Z,88027.00
2023-05-12T05:02:46.251Z,88029.00
2023-05-12T05:03:46.398Z,88029.00
2023-05-12T05:04:46.275Z,88027.00
2023-05-12T05:05:46.285Z,88029.00
2023-05-12T05:06:46.341Z,88029.00
2023-05-12T05:07:46.360Z,88027.00
2023-05-12T05:08:46.433Z,88031.00
2023-05-12T05:09:46.464Z,88029.00
2023-05-12T05:10:46.489Z,88031.00
2023-05-12T05:11:46.513Z,88029.00
2023-05-12T05:12:46.538Z,88029.00
2023-05-12T05:13:46.608Z,88031.00
2023-05-12T05:14:46.605Z,88031.00
2023-05-12T05:15:46.652Z,88031.00
2023-05-12T05:16:46.659Z,88033.00
2023-05-12T05:17:46.710Z,88035.00
2023-05-12T05:18:46.945Z,88031.00
2023-05-12T05:19:56.179Z,88029.00
2023-05-12T05:20:54.639Z,88031.00
2023-05-12T05:21:47.783Z,88029.00
2023-05-12T05:22:46.901Z,88033.00
2023-05-12T05:23:46.836Z,88031.00
2023-05-12T05:24:46.883Z,88033.00
2023-05-12T05:25:46.873Z,88033.00
2023-05-12T05:26:46.916Z,88035.00
2023-05-12T05:27:46.929Z,88033.00
2023-05-12T05:28:46.963Z,88043.00
2023-05-12T05:29:46.991Z,88041.00
2023-05-12T05:30:47.000Z,88043.00
2023-05-12T05:31:47.063Z,88043.00
2023-05-12T05:32:47.135Z,88039.00
2023-05-12T05:33:47.090Z,88041.00
2023-05-12T05:34:47.160Z,88041.00
2023-05-12T05:35:47.143Z,88041.00
2023-05-12T05:36:47.165Z,88043.00
2023-05-12T05:37:47.205Z,88041.00
2023-05-12T05:38:47.223Z,88043.00
2023-05-12T05:39:47.253Z,88045.00
2023-05-12T05:40:53.533Z,88047.00
2023-05-12T05:41:48.325Z,88047.00
2023-05-12T05:42:47.514Z,88043.00
2023-05-12T05:43:47.440Z,88045.00
2023-05-12T05:44:47.459Z,88045.00
2023-05-12T05:45:47.413Z,88047.00
2023-05-12T05:46:47.516Z,88047.00
2023-05-12T05:47:47.528Z,88041.00
2023-05-12T05:48:47.505Z,88041.00
2023-05-12T05:49:47.502Z,88045.00
2023-05-12T05:50:47.519Z,88043.00
2023-05-12T05:51:47.534Z,88045.00
2023-05-12T05:52:47.570Z,88045.00
2023-05-12T05:53:47.573Z,88049.00
2023-05-12T05:54:47.601Z,88049.00
2023-05-12T05:55:47.619Z,88045.00
2023-05-12T05:56:47.642Z,88045.00
2023-05-12T05:57:47.687Z,88049.00
2023-05-12T05:58:47.706Z,88051.00
2023-05-12T05:59:47.733Z,88047.00
2023-05-12T06:00:47.768Z,88047.00
2023-05-12T06:01:47.817Z,88049.00
2023-05-12T06:02:47.940Z,88053.00
2023-05-12T06:03:48.039Z,88053.00
2023-05-12T06:04:47.901Z,88051.00
2023-05-12T06:05:47.941Z,88051.00
2023-05-12T06:06:47.972Z,88055.00
2023-05-12T06:07:48.018Z,88055.00
2023-05-12T06:08:48.039Z,88055.00
2023-05-12T06:09:48.068Z,88056.00
2023-05-12T06:10:48.121Z,88056.00
2023-05-12T06:11:48.180Z,88056.00
2023-05-12T06:12:48.237Z,88055.00
2023-05-12T06:13:48.248Z,88051.00
2023-05-12T06:14:48.286Z,88049.00
2023-05-12T06:15:48.314Z,88047.00
2023-05-12T06:16:48.419Z,88049.00
2023-05-12T06:17:48.528Z,88047.00
2023-05-12T06:18:48.460Z,88051.00
2023-05-12T06:19:48.423Z,88053.00
2023-05-12T06:20:48.454Z,88051.00
2023-05-12T06:21:48.478Z,88053.00
2023-05-12T06:22:48.528Z,88053.00
2023-05-12T06:23:48.567Z,88055.00
2023-05-12T06:24:48.604Z,88056.00
2023-05-12T06:25:48.638Z,88056.00
2023-05-12T06:26:48.681Z,88053.00
2023-05-12T06:27:48.738Z,88055.00
2023-05-12T06:28:48.777Z,88056.00
2023-05-12T06:29:48.817Z,88055.00
2023-05-12T06:30:48.858Z,88056.00
2023-05-12T06:31:48.929Z,88056.00
2023-05-12T06:32:49.035Z,88056.00
2023-05-12T06:33:48.979Z,88056.00
2023-05-12T06:34:48.989Z,88056.00
2023-05-12T06:35:49.024Z,88058.00
2023-05-12T06:36:49.056Z,88058.00
2023-05-12T06:37:49.137Z,88058.00
2023-05-12T06:38:49.214Z,88056.00
2023-05-12T06:39:49.258Z,88058.00
2023-05-12T06:40:49.335Z,88060.00
2023-05-12T06:41:49.401Z,88060.00
2023-05-12T06:42:49.472Z,88058.00
2023-05-12T06:43:49.500Z,88056.00
2023-05-12T06:44:49.540Z,88055.00
2023-05-12T06:45:49.606Z,88053.00
2023-05-12T06:46:49.643Z,88055.00
2023-05-12T06:47:49.660Z,88056.00
2023-05-12T06:48:49.646Z,88053.00
2023-05-12T06:49:49.670Z,88053.00
2023-05-12T06:50:49.692Z,88053.00
2023-05-12T06:51:49.702Z,88049.00
2023-05-12T06:52:49.727Z,88051.00
2023-05-12T06:53:49.741Z,88049.00
2023-05-12T06:54:49.782Z,88047.00
2023-05-12T06:55:49.784Z,88047.00
2023-05-12T06:56:49.810Z,88047.00
2023-05-12T06:57:49.826Z,88047.00
2023-05-12T06:58:49.863Z,88047.00
2023-05-12T06:59:49.880Z,88047.00
2023-05-12T07:00:49.896Z,88045.00
2023-05-12T07:01:49.955Z,88045.00
2023-05-12T07:02:50.000Z,88045.00
2023-05-12T07:03:50.024Z,88045.00
2023-05-12T07:04:50.048Z,88049.00
2023-05-12T07:05:50.048Z,88045.00
2023-05-12T07:06:50.091Z,88047.00
2023-05-12T07:07:50.156Z,88045.00
2023-05-12T07:08:50.225Z,88045.00
2023-05-12T07:09:50.310Z,88047.00
2023-05-12T07:10:50.360Z,88045.00
2023-05-12T07:11:50.439Z,88045.00
2023-05-12T07:12:50.533Z,88043.00
2023-05-12T07:13:50.609Z,88045.00
2023-05-12T07:14:50.665Z,88041.00
2023-05-12T07:15:50.793Z,88043.00
2023-05-12T07:16:50.812Z,88043.00
2023-05-12T07:17:50.915Z,88043.00
2023-05-12T07:18:50.966Z,88041.00
2023-05-12T07:19:51.022Z,88039.00
2023-05-12T07:20:51.082Z,88039.00
2023-05-12T07:21:51.325Z,88037.00
2023-05-12T07:22:51.219Z,88037.00
2023-05-12T07:23:51.278Z,88037.00
2023-05-12T07:24:51.398Z,88035.00
2023-05-12T07:25:51.436Z,88033.00
2023-05-12T07:26:51.507Z,88031.00
2023-05-12T07:27:51.604Z,88033.00
2023-05-12T07:28:51.613Z,88033.00
2023-05-12T07:29:51.648Z,88031.00
2023-05-12T07:30:51.733Z,88033.00
2023-05-12T07:31:51.793Z,88029.00
2023-05-12T07:32:51.746Z,88029.00
2023-05-12T07:33:51.736Z,88029.00
2023-05-12T07:34:51.771Z,88029.00
2023-05-12T07:35:51.816Z,88025.00
2023-05-12T07:36:51.815Z,88023.00
2023-05-12T07:37:51.924Z,88023.00
2023-05-12T07:38:51.906Z,88025.00
2023-05-12T07:39:51.906Z,88025.00
2023-05-12T07:40:51.917Z,88027.00
2023-05-12T07:41:51.977Z,88025.00
2023-05-12T07:42:51.952Z,88025.00
2023-05-12T07:43:51.979Z,88027.00
2023-05-12T07:44:51.985Z,88025.00
2023-05-12T07:45:52.014Z,88025.00
2023-05-12T07:46:52.084Z,88025.00
2023-05-12T07:47:52.052Z,88023.00
2023-05-12T07:48:52.077Z,88025.00
2023-05-12T07:49:52.091Z,88023.00
2023-05-12T07:50:52.088Z,88023.00
2023-05-12T07:51:52.100Z,88023.00
2023-05-12T07:52:52.155Z,88027.00
2023-05-12T07:53:52.164Z,88029.00
2023-05-12T07:54:52.149Z,88031.00
2023-05-12T07:55:52.149Z,88029.00
2023-05-12T07:56:52.154Z,88029.00
2023-05-12T07:57:52.184Z,88027.00
2023-05-12T07:58:52.176Z,88029.00
2023-05-12T07:59:52.195Z,88027.00
2023-05-12T08:00:52.171Z,88027.00
2023-05-12T08:01:52.304Z,88027.00
2023-05-12T08:02:52.537Z,88025.00
2023-05-12T08:03:52.240Z,88025.00
2023-05-12T08:04:52.204Z,88027.00
2023-05-12T08:05:52.191Z,88027.00
2023-05-12T08:06:52.265Z,88025.00
2023-05-12T08:07:52.310Z,88025.00
2023-05-12T08:08:52.359Z,88025.00
2023-05-12T08:09:52.410Z,88025.00
2023-05-12T08:10:52.510Z,88025.00
2023-05-12T08:11:52.518Z,88025.00
2023-05-12T08:12:52.589Z,88027.00
2023-05-12T08:13:52.628Z,88025.00
2023-05-12T08:14:52.691Z,88027.00
2023-05-12T08:15:52.769Z,88027.00
2023-05-12T08:16:52.832Z,88027.00
2023-05-12T08:17:52.888Z,88025.00
2023-05-12T08:18:52.958Z,88027.00
2023-05-12T08:19:52.902Z,88027.00
2023-05-12T08:20:52.957Z,88029.00
2023-05-12T08:21:52.972Z,88027.00
2023-05-12T08:22:53.014Z,88029.00
2023-05-12T08:23:53.048Z,88029.00
2023-05-12T08:24:53.084Z,88029.00
2023-05-12T08:25:53.149Z,88031.00
2023-05-12T08:26:53.155Z,88031.00
2023-05-12T08:27:53.202Z,88029.00
2023-05-12T08:28:53.227Z,88033.00
2023-05-12T08:29:53.265Z,88033.00
2023-05-12T08:30:53.315Z,88033.00
2023-05-12T08:31:54.343Z,88033.00
2023-05-12T08:32:53.421Z,88033.00
2023-05-12T08:34:09.145Z,88031.00
2023-05-12T08:34:53.378Z,88031.00
2023-05-12T08:35:53.378Z,88033.00
2023-05-12T08:36:53.391Z,88033.00
2023-05-12T08:37:53.379Z,88031.00
2023-05-12T08:38:53.383Z,88031.00
2023-05-12T08:39:53.405Z,88033.00
2023-05-12T08:40:53.392Z,88031.00
2023-05-12T08:41:53.652Z,88033.00
2023-05-12T08:42:53.369Z,88031.00
2023-05-12T08:43:53.383Z,88033.00
2023-05-12T08:44:53.373Z,88033.00
2023-05-12T08:45:53.406Z,88033.00
2023-05-12T08:46:53.437Z,88035.00
2023-05-12T08:47:53.409Z,88033.00
2023-05-12T08:48:53.402Z,88035.00
2023-05-12T08:49:53.375Z,88035.00
2023-05-12T08:50:53.388Z,88037.00
2023-05-12T08:51:57.606Z,88033.00
2023-05-12T08:52:54.374Z,88033.00
2023-05-12T08:53:53.392Z,88029.00
2023-05-12T08:54:56.361Z,88033.00
2023-05-12T08:57:09.066Z,88033.00
2023-05-12T08:57:53.595Z,88029.00
2023-05-12T08:58:53.407Z,88031.00
2023-05-12T08:59:53.390Z,88031.00
2023-05-12T09:00:53.421Z,88031.00
2023-05-12T09:01:53.463Z,88031.00
2023-05-12T09:02:54.783Z,88031.00
2023-05-12T09:03:54.214Z,88029.00
2023-05-12T09:04:53.650Z,88029.00
2023-05-12T09:05:53.385Z,88029.00
2023-05-12T09:06:55.740Z,88029.00
2023-05-12T09:07:53.614Z,88031.00
2023-05-12T09:08:53.635Z,88029.00
2023-05-12T09:09:53.684Z,88031.00
2023-05-12T09:10:53.716Z,88031.00
2023-05-12T09:11:53.752Z,88033.00
2023-05-12T09:12:53.789Z,88031.00
2023-05-12T09:13:53.875Z,88033.00
2023-05-12T09:14:53.889Z,88033.00
2023-05-12T09:15:54.037Z,88035.00
2023-05-12T09:16:53.975Z,88035.00
2023-05-12T09:17:54.079Z,88031.00
2023-05-12T09:18:54.046Z,88035.00
2023-05-12T09:19:54.010Z,88031.00
2023-05-12T09:20:54.035Z,88033.00
2023-05-12T09:21:54.008Z,88029.00
2023-05-12T09:22:54.018Z,88031.00
2023-05-12T09:23:54.013Z,88031.00
2023-05-12T09:24:54.001Z,88033.00
2023-05-12T09:25:54.014Z,88031.00
2023-05-12T09:26:54.030Z,88035.00
2023-05-12T09:27:54.024Z,88033.00
2023-05-12T09:28:54.016Z,88031.00
2023-05-12T09:30:54.023Z,88033.00
2023-05-12T09:31:54.062Z,88033.00
2023-05-12T09:32:54.076Z,88031.00
2023-05-12T09:33:54.033Z,88033.00
2023-05-12T09:34:54.034Z,88031.00
2023-05-12T09:35:54.051Z,88031.00
2023-05-12T09:36:54.032Z,88033.00
2023-05-12T09:37:54.038Z,88035.00
2023-05-12T09:38:54.045Z,88033.00
2023-05-12T09:39:54.705Z,88033.00
2023-05-12T09:40:54.035Z,88031.00
2023-05-12T09:41:54.035Z,88033.00
2023-05-12T09:42:54.024Z,88031.00
2023-05-12T09:43:54.045Z,88031.00
2023-05-12T09:44:54.046Z,88031.00
2023-05-12T09:45:54.437Z,88031.00
2023-05-12T09:46:54.055Z,88031.00
2023-05-12T09:47:54.166Z,88033.00
2023-05-12T09:48:54.075Z,88029.00
2023-05-12T09:49:54.076Z,88029.00
2023-05-12T09:50:54.088Z,88031.00
2023-05-12T09:51:54.080Z,88031.00
2023-05-12T09:52:54.081Z,88025.00
2023-05-12T09:53:54.173Z,88027.00
2023-05-12T09:54:54.109Z,88025.00
2023-05-12T09:55:54.113Z,88025.00
2023-05-12T09:56:54.118Z,88025.00
2023-05-12T09:57:54.133Z,88027.00
2023-05-12T09:58:54.154Z,88027.00
2023-05-12T09:59:54.176Z,88027.00
2023-05-12T10:01:13.494Z,88027.00
2023-05-12T10:01:55.368Z,88025.00
2023-05-12T10:02:54.272Z,88025.00
2023-05-12T10:03:54.256Z,88025.00
2023-05-12T10:04:54.292Z,88027.00
2023-05-12T10:05:54.302Z,88027.00
2023-05-12T10:06:54.304Z,88023.00
2023-05-12T10:07:54.304Z,88025.00
2023-05-12T10:08:54.341Z,88021.00
2023-05-12T10:09:54.348Z,88027.00
2023-05-12T10:10:54.380Z,88025.00
2023-05-12T10:11:54.389Z,88025.00
2023-05-12T10:12:54.400Z,88023.00
2023-05-12T10:13:54.448Z,88023.00
2023-05-12T10:14:54.448Z,88021.00
2023-05-12T10:15:54.457Z,88023.00
2023-05-12T10:16:54.590Z,88025.00
2023-05-12T10:17:54.599Z,88025.00
2023-05-12T10:18:54.604Z,88023.00
2023-05-12T10:19:54.560Z,88027.00
2023-05-12T10:20:54.562Z,88025.00
2023-05-12T10:21:54.583Z,88025.00
2023-05-12T10:22:54.689Z,88027.00
2023-05-12T10:23:54.623Z,88025.00
2023-05-12T10:24:54.625Z,88025.00
2023-05-12T10:25:54.640Z,88023.00
2023-05-12T10:26:54.647Z,88023.00
2023-05-12T10:27:54.661Z,88021.00
2023-05-12T10:28:54.680Z,88023.00
2023-05-12T10:29:54.679Z,88021.00
2023-05-12T10:30:54.746Z,88025.00
2023-05-12T10:31:54.720Z,88019.00
2023-05-12T10:32:54.775Z,88019.00
2023-05-12T10:33:54.729Z,88019.00
2023-05-12T10:34:54.854Z,88019.00
2023-05-12T10:35:54.759Z,88019.00
2023-05-12T10:36:54.797Z,88017.00
2023-05-12T10:37:54.795Z,88021.00
2023-05-12T10:38:54.802Z,88025.00
2023-05-12T10:39:54.806Z,88019.00
2023-05-12T10:40:54.838Z,88021.00
2023-05-12T10:41:54.839Z,88025.00
2023-05-12T10:42:54.857Z,88023.00
2023-05-12T10:43:54.878Z,88027.00
2023-05-12T10:44:54.897Z,88025.00
2023-05-12T10:45:54.893Z,88025.00
2023-05-12T10:46:54.879Z,88025.00
2023-05-12T10:47:54.958Z,88025.00
2023-05-12T10:48:54.932Z,88025.00
2023-05-12T10:49:54.936Z,88023.00
2023-05-12T10:50:54.953Z,88025.00
2023-05-12T10:51:55.018Z,88027.00
2023-05-12T10:52:55.084Z,88029.00
2023-05-12T10:53:55.131Z,88031.00
2023-05-12T10:54:55.467Z,88029.00
2023-05-12T10:55:55.475Z,88031.00
2023-05-12T10:56:55.386Z,88031.00
2023-05-12T10:57:55.568Z,88033.00
2023-05-12T10:58:55.485Z,88033.00
2023-05-12T10:59:55.745Z,88031.00
2023-05-12T11:00:55.779Z,88033.00
2023-05-12T11:01:55.682Z,88031.00
2023-05-12T11:02:59.253Z,88033.00
2023-05-12T11:03:56.321Z,88031.00
2023-05-12T11:04:55.342Z,88033.00
2023-05-12T11:05:55.814Z,88031.00
2023-05-12T11:06:56.114Z,88031.00
2023-05-12T11:07:55.391Z,88033.00
2023-05-12T11:08:55.411Z,88031.00
2023-05-12T11:09:59.124Z,88033.00
2023-05-12T11:10:56.240Z,88031.00
2023-05-12T11:11:55.611Z,88029.00
2023-05-12T11:12:55.282Z,88029.00
2023-05-12T11:13:55.181Z,88029.00
2023-05-12T11:14:55.149Z,88033.00
2023-05-12T11:15:55.163Z,88031.00
2023-05-12T11:16:55.132Z,88033.00
2023-05-12T11:17:55.161Z,88037.00
2023-05-12T11:18:55.253Z,88035.00
2023-05-12T11:19:55.139Z,88035.00
2023-05-12T11:20:55.091Z,88033.00
2023-05-12T11:21:55.120Z,88033.00
2023-05-12T11:22:55.097Z,88029.00
2023-05-12T11:23:55.054Z,88029.00
2023-05-12T11:24:55.134Z,88029.00
2023-05-12T11:25:55.097Z,88029.00
2023-05-12T11:26:55.066Z,88033.00
2023-05-12T11:27:55.063Z,88033.00
2023-05-12T11:28:55.014Z,88031.00
2023-05-12T11:29:55.015Z,88035.00
2023-05-12T11:30:55.639Z,88033.00
2023-05-12T11:31:54.991Z,88031.00
2023-05-12T11:32:54.975Z,88031.00
2023-05-12T11:34:08.245Z,88033.00
2023-05-12T11:34:55.967Z,88029.00
2023-05-12T11:35:54.968Z,88029.00
2023-05-12T11:36:54.960Z,88033.00
2023-05-12T11:37:54.965Z,88031.00
2023-05-12T11:38:54.946Z,88031.00
2023-05-12T11:39:55.082Z,88031.00
2023-05-12T11:40:54.917Z,88031.00
2023-05-12T11:42:05.512Z,88027.00
2023-05-12T11:42:55.997Z,88029.00
2023-05-12T11:43:54.914Z,88031.00
2023-05-12T11:44:54.906Z,88033.00
2023-05-12T11:45:54.903Z,88031.00
2023-05-12T11:46:54.878Z,88035.00
2023-05-12T11:47:55.509Z,88031.00
2023-05-12T11:48:54.882Z,88035.00